Time;durP1;ratioP1;P1;durP2;ratioP2;P2;SDS_P1;SDS_P2;PMS_P1;PMS_P2;Temp;Humidity;BMP_temperature;BMP_pressure;BME280_temperature;BME280_humidity;BME280_pressure;Samples;Min_cycle;Max_cycle;Signal;HPM_P1;HPM_P2
2023/01/15 00:00:17;;;;;;;14.37;2.20;;;6.00;99.90;;;;;;4992865;28;20047;-86
2023/01/15 00:02:42;;;;;;;8.67;1.93;;;6.10;99.90;;;;;;4975341;28;20046;-85
2023/01/15 00:05:11;;;;;;;8.77;1.80;;;5.70;99.90;;;;;;4926634;28;20054;-86
2023/01/15 00:07:43;;;;;;;8.43;1.97;;;5.80;99.90;;;;;;4992512;28;20046;-85
2023/01/15 00:10:17;;;;;;;13.07;2.40;;;7.00;99.90;;;;;;4979152;28;20081;-85
2023/01/15 00:12:55;;;;;;;10.03;2.00;;;6.00;99.90;;;;;;4977116;28;20498;-85
2023/01/15 00:15:41;;;;;;;12.83;2.37;;;6.20;99.90;;;;;;4978799;28;20050;-86
2023/01/15 00:18:06;;;;;;;10.70;2.20;;;5.70;99.90;;;;;;4944925;28;20055;-86
2023/01/15 00:20:34;;;;;;;9.83;2.40;;;6.00;99.90;;;;;;4996501;28;20038;-85
2023/01/15 00:27:37;;;;;;;12.00;2.20;;;5.80;99.90;;;;;;4978755;28;20054;-85
2023/01/15 00:29:47;;;;;;;13.73;2.30;;;4.90;99.90;;;;;;4996681;28;20080;-86
2023/01/15 00:32:12;;;;;;;10.93;2.10;;;6.00;99.90;;;;;;4996332;28;20050;-85
2023/01/15 00:34:38;;;;;;;10.70;2.00;;;6.20;99.90;;;;;;4996149;28;20038;-85
2023/01/15 00:37:13;;;;;;;14.63;2.50;;;5.50;99.90;;;;;;4996916;28;20046;-85
2023/01/15 00:39:38;;;;;;;10.53;2.10;;;7.90;99.90;;;;;;4979077;28;20504;-85
2023/01/15 00:42:10;;;;;;;11.83;2.20;;;8.00;99.90;;;;;;4978417;28;20125;-85
2023/01/15 00:44:54;;;;;;;12.47;2.37;;;5.80;99.90;;;;;;4978996;28;20050;-85
2023/01/15 00:47:20;;;;;;;13.83;2.20;;;7.10;99.90;;;;;;4979275;28;20481;-85
2023/01/15 00:49:52;;;;;;;11.30;2.10;;;7.60;99.90;;;;;;5003263;28;20022;-85
2023/01/15 00:52:26;;;;;;;19.40;2.43;;;6.80;99.90;;;;;;4994567;28;20054;-86
2023/01/15 00:54:53;;;;;;;13.67;2.20;;;7.40;99.90;;;;;;4983489;28;20054;-85
2023/01/15 00:57:21;;;;;;;10.27;2.27;;;4.70;99.90;;;;;;4979651;28;20042;-85
2023/01/15 01:00:10;;;;;;;12.97;2.07;;;7.80;99.90;;;;;;4978992;28;20080;-85
2023/01/15 01:02:45;;;;;;;13.20;2.57;;;6.10;99.90;;;;;;4995969;28;20117;-86
2023/01/15 01:05:23;;;;;;;9.83;2.30;;;6.10;99.90;;;;;;4996421;28;20042;-86
2023/01/15 01:07:58;;;;;;;10.23;2.30;;;8.10;99.90;;;;;;4979163;28;20140;-85
2023/01/15 01:10:32;;;;;;;15.60;2.33;;;7.20;99.90;;;;;;4977808;28;20058;-85
2023/01/15 01:12:57;;;;;;;8.57;2.00;;;6.00;99.90;;;;;;4979149;28;20159;-85
2023/01/15 01:15:24;;;;;;;12.30;2.00;;;5.60;99.90;;;;;;4978410;28;20507;-85
2023/01/15 01:17:50;;;;;;;10.13;2.10;;;6.50;99.90;;;;;;4995205;28;20053;-85
2023/01/15 01:20:36;;;;;;;7.90;1.80;;;5.80;99.90;;;;;;4978396;28;20046;-85
2023/01/15 01:23:17;;;;;;;9.97;2.20;;;7.30;99.90;;;;;;4995601;28;20066;-85
2023/01/15 01:26:29;;;;;;;12.97;2.13;;;7.00;99.90;;;;;;4994303;28;20442;-85
2023/01/15 01:29:13;;;;;;;12.20;2.03;;;6.10;99.90;;;;;;4995337;28;20510;-85
2023/01/15 01:31:42;;;;;;;11.27;2.30;;;6.10;99.90;;;;;;4995418;28;20178;-85
2023/01/15 01:34:09;;;;;;;11.40;2.30;;;5.10;99.90;;;;;;4978241;28;20510;-85
2023/01/15 01:36:37;;;;;;;14.83;2.60;;;6.90;99.90;;;;;;4990738;28;20052;-85
2023/01/15 01:39:12;;;;;;;11.77;2.17;;;6.20;99.90;;;;;;4977377;28;20058;-85
2023/01/15 01:41:47;;;;;;;11.07;2.33;;;7.00;99.90;;;;;;4995826;28;20049;-85
2023/01/15 01:44:33;;;;;;;12.00;2.50;;;5.40;99.90;;;;;;4995401;28;20047;-85
2023/01/15 01:47:14;;;;;;;10.77;2.37;;;7.80;99.90;;;;;;4999038;28;20450;-85
2023/01/15 01:49:56;;;;;;;12.17;2.10;;;5.90;99.90;;;;;;4978252;28;20100;-86
2023/01/15 01:53:03;;;;;;;11.50;2.40;;;6.50;99.90;;;;;;4976950;28;20042;-85
2023/01/15 01:55:49;;;;;;;13.13;2.40;;;7.20;99.90;;;;;;4975201;28;20051;-85
2023/01/15 01:58:30;;;;;;;14.07;2.30;;;7.60;99.90;;;;;;4977572;28;20046;-85
2023/01/15 02:00:56;;;;;;;13.97;2.47;;;7.10;99.90;;;;;;4993088;28;20418;-85
2023/01/15 02:03:31;;;;;;;12.13;2.30;;;5.70;99.90;;;;;;4977602;28;20050;-85
2023/01/15 02:06:02;;;;;;;10.27;2.10;;;7.60;99.90;;;;;;4995111;28;20788;-85
2023/01/15 02:08:38;;;;;;;;;;;;;;;;;;;;;
2023/01/15 02:11:35;;;;;;;12.03;2.57;;;6.10;99.90;;;;;;4977247;28;20066;-85
2023/01/15 02:14:36;;;;;;;13.63;2.57;;;6.40;99.90;;;;;;4976466;28;20096;-85
2023/01/15 02:17:41;;;;;;;13.07;2.27;;;7.00;99.90;;;;;;4977331;28;20066;-85
2023/01/15 02:20:42;;;;;;;11.23;2.10;;;7.00;99.90;;;;;;4976579;28;20050;-85
2023/01/15 02:23:20;;;;;;;12.73;2.17;;;5.00;99.90;;;;;;4994414;28;20050;-85
2023/01/15 02:26:40;;;;;;;13.37;2.17;;;6.00;99.90;;;;;;4918180;29;20075;-85
2023/01/15 02:29:12;;;;;;;15.27;2.37;;;6.10;99.90;;;;;;4879544;29;20061;-85
2023/01/15 02:31:49;;;;;;;11.77;2.23;;;8.00;99.90;;;;;;4881383;29;20064;-85
2023/01/15 02:34:34;;;;;;;10.93;2.00;;;7.40;99.90;;;;;;4880248;29;20056;-85
2023/01/15 02:37:23;;;;;;;11.20;2.30;;;7.20;99.90;;;;;;4896445;29;20044;-85
2023/01/15 02:39:50;;;;;;;12.57;2.40;;;6.00;99.90;;;;;;4963282;23;20495;-85
2023/01/15 02:42:58;;;;;;;12.83;2.37;;;7.40;99.90;;;;;;4975910;28;20379;-85
2023/01/15 02:45:49;;;;;;;12.60;2.20;;;6.00;99.90;;;;;;4976447;28;20126;-85
2023/01/15 02:48:19;;;;;;;13.73;2.93;;;5.90;99.90;;;;;;4993193;28;20046;-85
2023/01/15 02:51:13;;;;;;;11.93;2.20;;;5.60;99.90;;;;;;4977526;28;20055;-85
2023/01/15 02:53:48;;;;;;;13.02;1.90;;;6.10;99.90;;;;;;4993983;28;20490;-85
2023/01/15 02:56:28;;;;;;;13.93;3.23;;;6.50;99.90;;;;;;4970039;28;20042;-85
2023/01/15 02:59:15;;;;;;;8.93;2.30;;;6.10;99.90;;;;;;4994118;28;20097;-85
2023/01/15 03:02:06;;;;;;;13.63;2.50;;;7.70;99.90;;;;;;4993090;28;20077;-84
2023/01/15 03:04:59;;;;;;;13.60;2.30;;;5.90;99.90;;;;;;4992989;28;20054;-84
2023/01/15 03:07:51;;;;;;;13.37;2.30;;;5.80;99.90;;;;;;4975930;28;20046;-84
2023/01/15 03:10:18;;;;;;;11.57;2.30;;;5.60;99.90;;;;;;4991864;28;20047;-85
2023/01/15 03:13:07;;;;;;;13.00;2.30;;;5.70;99.90;;;;;;4994093;28;20042;-85
2023/01/15 03:19:28;;;;;;;13.87;2.63;;;6.00;99.90;;;;;;4993997;28;20121;-82
2023/01/15 03:22:22;;;;;;;10.83;2.27;;;6.10;99.90;;;;;;4996969;28;20450;-84
2023/01/15 03:25:17;;;;;;;12.93;2.72;;;5.90;99.90;;;;;;4976196;28;20441;-85
2023/01/15 03:28:06;;;;;;;16.13;2.80;;;6.10;99.90;;;;;;4993739;28;20056;-84
2023/01/15 03:30:32;;;;;;;9.87;2.20;;;6.20;99.90;;;;;;4978563;28;20181;-85
2023/01/15 03:33:17;;;;;;;13.90;2.50;;;5.70;99.90;;;;;;4976438;28;20057;-85
2023/01/15 03:35:42;;;;;;;11.53;2.30;;;7.90;99.90;;;;;;4976090;28;20501;-85
2023/01/15 03:38:09;;;;;;;12.13;2.30;;;5.70;99.90;;;;;;4975570;28;20054;-84
2023/01/15 03:41:25;;;;;;;16.70;2.30;;;5.60;99.90;;;;;;4975614;28;20125;-84
2023/01/15 03:44:29;;;;;;;14.57;2.40;;;6.10;99.90;;;;;;4914129;29;20059;-84
2023/01/15 03:50:43;;;;;;;14.93;2.47;;;5.60;99.90;;;;;;5035347;23;20081;-85
2023/01/15 03:53:45;;;;;;;12.03;2.60;;;5.90;99.90;;;;;;5010709;28;20089;-84
2023/01/15 03:56:36;;;;;;;12.33;2.50;;;5.80;99.90;;;;;;5013836;28;20054;-82
2023/01/15 03:59:31;;;;;;;11.53;2.30;;;6.00;99.90;;;;;;4994871;28;20422;-82
2023/01/15 04:01:59;;;;;;;11.00;2.30;;;6.10;99.90;;;;;;4994307;28;20049;-82
2023/01/15 04:04:38;;;;;;;16.63;2.30;;;7.60;99.90;;;;;;5012741;28;20056;-82
2023/01/15 04:07:04;;;;;;;14.70;2.80;;;7.50;99.90;;;;;;5012645;28;20469;-82
2023/01/15 04:09:50;;;;;;;14.23;2.93;;;7.20;99.90;;;;;;4991061;28;20073;-82
2023/01/15 04:12:16;;;;;;;12.90;2.40;;;5.30;99.90;;;;;;5012258;28;20452;-82
2023/01/15 04:15:00;;;;;;;10.63;2.30;;;7.50;99.90;;;;;;4995401;28;20088;-82
2023/01/15 04:17:26;;;;;;;12.15;2.95;;;7.60;99.90;;;;;;4994787;28;20034;-82
2023/01/15 04:20:00;;;;;;;16.57;2.67;;;5.60;99.90;;;;;;4994103;28;20068;-85
2023/01/15 04:22:26;;;;;;;12.00;2.13;;;5.50;99.90;;;;;;4994938;28;20045;-84
2023/01/15 04:25:11;;;;;;;12.77;2.73;;;7.20;99.90;;;;;;5012655;28;20084;-84
2023/01/15 04:27:37;;;;;;;14.67;2.57;;;5.80;99.90;;;;;;4994216;28;20054;-84
2023/01/15 04:30:18;;;;;;;13.70;2.90;;;7.60;99.90;;;;;;5012709;28;20170;-85
2023/01/15 04:32:46;;;;;;;16.17;2.90;;;5.80;99.90;;;;;;5012506;28;20435;-84
2023/01/15 04:35:27;;;;;;;11.60;2.20;;;7.20;99.90;;;;;;5011412;28;20497;-85
2023/01/15 04:37:59;;;;;;;11.80;2.40;;;5.40;99.90;;;;;;4995148;28;20486;-84
2023/01/15 04:46:31;;;;;;;10.87;2.13;;;6.40;99.90;;;;;;4994429;28;19929;-84
2023/01/15 04:49:14;;;;;;;16.73;2.57;;;5.90;99.90;;;;;;5026361;23;20064;-84
2023/01/15 04:51:40;;;;;;;12.73;2.20;;;5.80;99.90;;;;;;5012794;28;20044;-84
2023/01/15 04:54:19;;;;;;;15.40;2.33;;;5.70;99.90;;;;;;4994526;28;20045;-84
2023/01/15 04:56:46;;;;;;;14.03;2.20;;;5.50;99.90;;;;;;4996058;28;20046;-84
2023/01/15 04:59:26;;;;;;;9.50;2.07;;;5.40;99.90;;;;;;4998217;28;20064;-84
2023/01/15 05:01:52;;;;;;;10.87;2.17;;;7.10;99.90;;;;;;4991134;28;20064;-84
2023/01/15 05:04:18;;;;;;;12.47;2.23;;;5.40;99.90;;;;;;4996302;28;20050;-84
2023/01/15 05:06:43;;;;;;;13.80;2.27;;;5.60;99.90;;;;;;5000042;28;20065;-84
2023/01/15 05:09:15;;;;;;;12.13;2.00;;;5.70;99.90;;;;;;4992528;28;20038;-84
2023/01/15 05:11:41;;;;;;;12.77;2.47;;;5.70;99.90;;;;;;4997990;28;20049;-84
2023/01/15 05:14:25;;;;;;;15.40;2.80;;;7.30;99.90;;;;;;4998211;28;20038;-84
2023/01/15 05:16:50;;;;;;;14.85;2.20;;;5.80;99.90;;;;;;4997548;28;20532;-84
2023/01/15 05:19:16;;;;;;;12.20;2.40;;;7.30;99.90;;;;;;4997933;28;20045;-84
2023/01/15 05:21:43;;;;;;;11.07;2.30;;;5.80;99.90;;;;;;4998293;28;20054;-84
2023/01/15 05:24:27;;;;;;;11.97;2.33;;;5.80;99.90;;;;;;5025209;23;20046;-84
2023/01/15 05:26:54;;;;;;;11.75;2.40;;;6.80;99.90;;;;;;5014081;28;20060;-84
2023/01/15 05:29:35;;;;;;;12.60;2.43;;;5.90;99.90;;;;;;5015057;28;20116;-84
2023/01/15 05:32:00;;;;;;;11.57;2.13;;;5.70;99.90;;;;;;5013654;28;20041;-85
2023/01/15 05:34:44;;;;;;;12.13;2.97;;;5.70;99.90;;;;;;5014472;28;20490;-84
2023/01/15 05:37:10;;;;;;;11.30;2.42;;;5.60;99.90;;;;;;5014267;28;20045;-84
2023/01/15 05:39:35;;;;;;;8.90;2.03;;;7.10;99.90;;;;;;5013891;28;20042;-85
2023/01/15 05:42:20;;;;;;;14.40;2.53;;;5.60;99.90;;;;;;5013852;28;20042;-84
2023/01/15 05:44:45;;;;;;;10.75;2.17;;;5.60;99.90;;;;;;5013612;28;20128;-84
2023/01/15 05:47:11;;;;;;;14.07;2.30;;;7.30;99.90;;;;;;5014889;28;20500;-84
2023/01/15 05:49:52;;;;;;;14.20;2.17;;;5.30;99.90;;;;;;5015171;28;20034;-85
2023/01/15 05:52:18;;;;;;;16.43;2.53;;;6.00;99.90;;;;;;5014269;28;20187;-85
2023/01/15 05:54:44;;;;;;;13.30;2.60;;;5.30;99.90;;;;;;5013575;28;20496;-85
2023/01/15 05:57:26;;;;;;;15.63;2.20;;;5.60;99.90;;;;;;5014648;28;20049;-85
2023/01/15 05:59:53;;;;;;;11.43;2.03;;;6.40;99.90;;;;;;5014542;28;20045;-85
2023/01/15 06:02:18;;;;;;;11.30;2.17;;;5.40;99.90;;;;;;5013364;28;20177;-85
2023/01/15 06:04:52;;;;;;;11.20;1.73;;;5.50;99.90;;;;;;5014703;28;20129;-84
2023/01/15 06:07:18;;;;;;;8.67;1.70;;;5.60;99.90;;;;;;5013195;28;20118;-84
2023/01/15 06:09:59;;;;;;;8.27;1.93;;;5.30;99.90;;;;;;5012109;28;20437;-84
2023/01/15 06:12:24;;;;;;;9.37;1.97;;;5.50;99.90;;;;;;5011990;28;20092;-85
2023/01/15 06:14:50;;;;;;;8.90;1.70;;;5.60;99.90;;;;;;5013015;28;20053;-85
2023/01/15 06:17:15;;;;;;;10.03;2.20;;;5.50;99.90;;;;;;5009729;28;20042;-85
2023/01/15 06:19:41;;;;;;;9.37;1.90;;;4.40;99.90;;;;;;4999242;28;20437;-85
2023/01/15 06:22:07;;;;;;;9.20;1.60;;;5.30;99.90;;;;;;4994686;28;20058;-85
2023/01/15 06:24:33;;;;;;;11.97;2.40;;;5.30;99.90;;;;;;5017411;28;20049;-85
2023/01/15 06:26:58;;;;;;;12.97;2.47;;;5.70;99.90;;;;;;5039717;23;20529;-84
2023/01/15 06:29:24;;;;;;;16.40;2.87;;;5.20;99.90;;;;;;5015499;28;20042;-84
2023/01/15 06:31:50;;;;;;;13.77;2.33;;;5.30;99.90;;;;;;5032586;28;20048;-84
2023/01/15 06:34:15;;;;;;;12.03;2.23;;;5.30;99.90;;;;;;5018441;28;20121;-84
2023/01/15 06:36:44;;;;;;;8.97;2.00;;;5.30;99.90;;;;;;5034140;28;20489;-83
2023/01/15 06:39:10;;;;;;;13.50;2.37;;;5.40;99.90;;;;;;5015729;28;20060;-84
2023/01/15 06:47:20;;;;;;;13.57;2.83;;;5.30;99.90;;;;;;5033405;28;19921;-83
2023/01/15 06:49:47;;;;;;;11.97;2.30;;;5.30;99.90;;;;;;5033708;28;20322;-83
2023/01/15 06:52:13;;;;;;;13.30;2.40;;;5.20;99.90;;;;;;5034083;23;20058;-84
2023/01/15 06:54:41;;;;;;;16.57;2.50;;;5.10;99.90;;;;;;4996401;28;20045;-83
2023/01/15 06:57:07;;;;;;;11.47;2.33;;;5.10;99.90;;;;;;5061418;23;20060;-83
2023/01/15 06:59:33;;;;;;;11.20;2.27;;;5.10;99.90;;;;;;5008520;28;20489;-83
2023/01/15 07:01:59;;;;;;;13.63;2.47;;;5.00;99.90;;;;;;4996105;28;20091;-83
2023/01/15 07:04:25;;;;;;;20.43;3.00;;;5.10;99.90;;;;;;5013873;28;20037;-83
2023/01/15 07:06:53;;;;;;;12.20;2.20;;;5.10;99.90;;;;;;4996282;28;20103;-83
2023/01/15 07:09:19;;;;;;;9.07;2.10;;;5.10;99.90;;;;;;4994299;28;20045;-84
2023/01/15 07:11:50;;;;;;;11.50;2.10;;;5.00;99.90;;;;;;4996138;28;20129;-84
2023/01/15 07:14:18;;;;;;;13.37;2.37;;;5.10;99.90;;;;;;4984859;28;20395;-84
2023/01/15 07:16:44;;;;;;;11.73;1.77;;;5.10;99.90;;;;;;5001786;28;20120;-84
2023/01/15 07:19:09;;;;;;;13.27;2.17;;;5.20;99.90;;;;;;4990629;28;20485;-84
2023/01/15 07:21:35;;;;;;;12.33;2.00;;;5.20;99.90;;;;;;4987166;28;20050;-83
2023/01/15 07:24:01;;;;;;;10.60;2.00;;;5.10;99.90;;;;;;4994361;28;20048;-83
2023/01/15 07:26:27;;;;;;;16.37;2.87;;;5.00;99.90;;;;;;4993053;28;20049;-81
2023/01/15 07:28:53;;;;;;;9.33;1.93;;;5.00;99.90;;;;;;4993303;28;20129;-81
2023/01/15 07:31:18;;;;;;;11.73;2.20;;;5.00;99.90;;;;;;4974780;28;20542;-81
2023/01/15 07:33:44;;;;;;;13.77;2.33;;;5.00;99.90;;;;;;4976647;28;20039;-80
2023/01/15 07:36:10;;;;;;;8.90;2.13;;;5.00;99.90;;;;;;4980633;28;20059;-81
2023/01/15 07:38:36;;;;;;;12.47;2.00;;;5.00;99.90;;;;;;4994180;28;20048;-80
2023/01/15 07:51:59;;;;;;;10.80;1.87;;;4.80;99.90;;;;;;4994414;28;20394;-80
2023/01/15 07:54:25;;;;;;;11.20;2.17;;;4.80;99.90;;;;;;5002748;28;20052;-82
2023/01/15 07:56:52;;;;;;;11.67;2.37;;;4.80;99.90;;;;;;4985971;28;20383;-81
2023/01/15 07:59:18;;;;;;;12.43;2.23;;;4.80;99.90;;;;;;4991217;28;20097;-80
2023/01/15 08:01:44;;;;;;;13.40;2.43;;;4.70;99.90;;;;;;4995486;28;20117;-81
2023/01/15 08:04:10;;;;;;;11.60;2.60;;;4.80;99.90;;;;;;4991116;28;20121;-80
2023/01/15 08:06:35;;;;;;;14.40;2.50;;;4.70;99.90;;;;;;5010999;28;20371;-80
2023/01/15 08:09:02;;;;;;;13.30;2.40;;;4.70;99.90;;;;;;4994255;28;20131;-80
2023/01/15 08:16:56;;;;;;;14.13;2.47;;;4.80;99.90;;;;;;4993530;28;20054;-80
2023/01/15 08:19:24;;;;;;;10.40;2.30;;;4.80;99.90;;;;;;4977625;28;20442;-80
2023/01/15 08:21:50;;;;;;;10.33;2.30;;;4.80;99.90;;;;;;4988402;28;20448;-81
2023/01/15 08:24:16;;;;;;;11.37;2.13;;;4.80;99.90;;;;;;4994729;28;20038;-80
2023/01/15 08:26:42;;;;;;;12.97;2.60;;;4.80;99.90;;;;;;4993979;28;20121;-80
2023/01/15 08:29:07;;;;;;;13.10;2.40;;;4.90;99.90;;;;;;4994811;28;20211;-81
2023/01/15 08:31:33;;;;;;;10.93;2.03;;;5.00;99.90;;;;;;4994665;28;20046;-81
2023/01/15 08:34:02;;;;;;;9.93;2.50;;;5.00;99.90;;;;;;4995912;28;20045;-81
2023/01/15 08:36:28;;;;;;;11.20;1.80;;;5.00;99.90;;;;;;4998006;28;20049;-81
2023/01/15 08:38:53;;;;;;;17.00;2.43;;;5.00;99.90;;;;;;4998437;28;20057;-81
2023/01/15 08:41:19;;;;;;;9.13;2.73;;;5.10;99.90;;;;;;5000449;28;20038;-81
2023/01/15 08:43:44;;;;;;;10.67;2.10;;;6.10;99.90;;;;;;5016873;28;20056;-81
2023/01/15 08:46:10;;;;;;;13.73;2.17;;;5.10;99.90;;;;;;4997919;28;20125;-81
2023/01/15 08:48:36;;;;;;;12.13;2.30;;;5.10;99.90;;;;;;4997842;28;20041;-81
2023/01/15 08:51:06;;;;;;;11.87;2.33;;;5.00;99.90;;;;;;5015865;28;20123;-81
2023/01/15 08:53:32;;;;;;;10.10;2.10;;;5.00;99.90;;;;;;4998343;28;20094;-81
2023/01/15 08:55:57;;;;;;;10.43;2.20;;;5.10;99.90;;;;;;4997635;28;20498;-81
2023/01/15 08:58:25;;;;;;;15.13;2.50;;;5.10;99.90;;;;;;4998242;28;20061;-81
2023/01/15 09:00:51;;;;;;;9.20;2.00;;;5.10;99.90;;;;;;4997231;28;20390;-80
2023/01/15 09:03:17;;;;;;;12.40;1.80;;;5.20;99.90;;;;;;5015394;28;20092;-80
2023/01/15 09:05:42;;;;;;;11.20;2.13;;;5.20;99.90;;;;;;4997693;28;20049;-81
2023/01/15 09:08:08;;;;;;;12.03;2.00;;;5.30;99.90;;;;;;4997511;28;20049;-81
2023/01/15 09:10:34;;;;;;;12.30;2.23;;;5.30;99.90;;;;;;5015628;28;20133;-81
2023/01/15 09:13:03;;;;;;;11.37;1.93;;;5.30;99.90;;;;;;4997711;28;20474;-82
2023/01/15 09:15:30;;;;;;;11.07;2.30;;;5.20;99.90;;;;;;4996971;28;20111;-81
2023/01/15 09:17:56;;;;;;;10.00;1.70;;;5.10;99.90;;;;;;5014978;28;20057;-81
2023/01/15 09:20:22;;;;;;;10.13;1.90;;;5.40;99.90;;;;;;4997569;28;20050;-81
2023/01/15 09:22:48;;;;;;;6.50;1.53;;;4.60;99.90;;;;;;4997042;28;20111;-80
2023/01/15 09:25:18;;;;;;;11.20;2.47;;;4.50;99.90;;;;;;4997780;28;20509;-81
2023/01/15 09:27:44;;;;;;;8.13;2.03;;;4.40;99.90;;;;;;5015256;28;20049;-82
2023/01/15 09:30:17;;;;;;;9.50;1.90;;;4.20;99.90;;;;;;5013849;28;20572;-81
2023/01/15 09:32:42;;;;;;;10.07;1.83;;;4.10;99.90;;;;;;4997531;28;20046;-81
2023/01/15 09:35:08;;;;;;;5.17;1.43;;;3.60;99.90;;;;;;5015211;28;20057;-82
2023/01/15 09:37:34;;;;;;;5.23;1.57;;;2.80;99.90;;;;;;4996852;28;20048;-82
2023/01/15 09:40:01;;;;;;;6.57;1.70;;;3.60;99.90;;;;;;4997649;28;20042;-83
2023/01/15 09:42:51;;;;;;;5.83;1.30;;;2.10;99.90;;;;;;4999291;28;20044;-83
2023/01/15 09:45:42;;;;;;;5.93;1.40;;;2.00;99.90;;;;;;5013784;28;20104;-82
2023/01/15 09:48:17;;;;;;;8.50;1.80;;;2.00;99.90;;;;;;4999184;28;20125;-82
2023/01/15 09:51:07;;;;;;;9.93;2.10;;;2.00;99.90;;;;;;5014182;28;20054;-82
2023/01/15 09:54:05;;;;;;;13.57;2.07;;;2.10;99.90;;;;;;5014151;28;20401;-82
2023/01/15 09:56:35;;;;;;;10.03;1.90;;;2.20;99.90;;;;;;4941406;28;20129;-82
2023/01/15 09:59:19;;;;;;;12.63;2.10;;;2.30;99.90;;;;;;4993779;28;20141;-82
2023/01/15 10:01:47;;;;;;;13.10;2.03;;;3.10;99.90;;;;;;4994635;28;20376;-81
2023/01/15 10:04:28;;;;;;;12.23;2.47;;;2.60;99.90;;;;;;4994120;28;20164;-82
2023/01/15 10:07:17;;;;;;;12.43;2.70;;;2.90;99.90;;;;;;4977779;28;20039;-81
2023/01/15 10:09:45;;;;;;;13.87;2.33;;;3.20;99.90;;;;;;4977298;28;20061;-82
2023/01/15 10:12:34;;;;;;;9.70;2.17;;;3.40;99.90;;;;;;4993438;28;20387;-82
2023/01/15 10:15:12;;;;;;;18.40;2.00;;;3.60;99.90;;;;;;4977368;28;20050;-81
2023/01/15 10:17:47;;;;;;;9.17;1.70;;;3.60;99.90;;;;;;4995329;23;20050;-82
2023/01/15 10:20:18;;;;;;;10.20;1.80;;;3.40;99.90;;;;;;5013517;28;20052;-82
2023/01/15 10:23:19;;;;;;;8.37;1.80;;;3.50;99.90;;;;;;5014141;28;20133;-82
2023/01/15 10:25:52;;;;;;;14.17;2.30;;;3.60;99.90;;;;;;5013743;28;20069;-82
2023/01/15 10:28:26;;;;;;;8.37;1.80;;;3.60;99.90;;;;;;4996877;28;20065;-82
2023/01/15 10:30:52;;;;;;;;;;;3.70;99.90;;;;;;4996514;28;20486;-82
2023/01/15 10:33:48;;;;;;;14.77;2.97;;;3.80;99.90;;;;;;5013057;28;20371;-82
2023/01/15 10:36:23;;;;;;;13.27;2.00;;;3.90;99.90;;;;;;4994763;28;20046;-82
2023/01/15 10:39:04;;;;;;;9.77;2.03;;;4.00;99.90;;;;;;4978623;28;20376;-83
2023/01/15 10:41:51;;;;;;;8.07;1.80;;;4.10;99.90;;;;;;4988139;28;20052;-81
2023/01/15 10:44:37;;;;;;;13.10;2.07;;;4.10;99.90;;;;;;5007628;23;20141;-83
2023/01/15 10:47:29;;;;;;;10.47;2.30;;;3.90;99.90;;;;;;4983376;28;20053;-82
2023/01/15 10:50:06;;;;;;;;;;;;;;;;;;;;;
2023/01/15 10:53:14;;;;;;;13.50;2.53;;;3.90;99.90;;;;;;4984643;28;20038;-81
2023/01/15 10:55:42;;;;;;;13.17;2.10;;;4.30;99.90;;;;;;4983114;28;20061;-81
2023/01/15 10:58:24;;;;;;;10.40;2.20;;;4.20;99.90;;;;;;4994413;28;20054;-81
2023/01/15 11:00:57;;;;;;;15.80;3.00;;;4.30;99.90;;;;;;4994956;28;20061;-81
2023/01/15 11:03:34;;;;;;;12.30;2.47;;;4.40;99.90;;;;;;4995140;28;20061;-81
2023/01/15 11:05:59;;;;;;;10.37;2.17;;;4.50;99.90;;;;;;5013148;28;20042;-82
2023/01/15 11:08:31;;;;;;;12.30;2.43;;;4.60;99.90;;;;;;5011872;28;20045;-82
2023/01/15 11:11:02;;;;;;;13.47;2.10;;;4.70;99.90;;;;;;4998250;28;20045;-83
2023/01/15 11:21:41;;;;;;;17.97;2.23;;;5.10;99.90;;;;;;4987313;28;20042;-82
2023/01/15 11:24:15;;;;;;;18.33;2.37;;;5.20;99.90;;;;;;4982080;28;20046;-82
2023/01/15 11:26:44;;;;;;;16.90;2.30;;;5.10;99.90;;;;;;4987908;28;20596;-82
2023/01/15 11:29:19;;;;;;;11.77;2.10;;;4.90;99.90;;;;;;4982900;28;20050;-82
2023/01/15 11:31:44;;;;;;;10.20;2.03;;;5.00;99.90;;;;;;4992619;28;20042;-82
2023/01/15 11:34:20;;;;;;;7.67;1.80;;;5.00;99.90;;;;;;4975073;28;20190;-82
2023/01/15 11:36:46;;;;;;;6.70;1.80;;;4.90;99.90;;;;;;4974934;28;20053;-82
2023/01/15 11:39:27;;;;;;;11.43;2.60;;;4.80;99.90;;;;;;4975809;28;20050;-82
2023/01/15 11:53:14;;;;;;;12.80;2.40;;;5.00;99.90;;;;;;4975627;28;19926;-82
2023/01/15 11:55:48;;;;;;;;;;;5.10;99.90;;;;;;4976192;28;20065;-82
2023/01/15 11:58:14;;;;;;;11.10;2.05;;;5.20;99.90;;;;;;4992210;28;19937;-82
2023/01/15 12:00:45;;;;;;;10.30;2.20;;;5.20;99.90;;;;;;4984557;28;20054;-82
2023/01/15 12:03:16;;;;;;;12.30;2.10;;;5.20;99.90;;;;;;5011612;28;20509;-82
2023/01/15 12:06:06;;;;;;;8.63;2.30;;;5.30;99.90;;;;;;4991486;28;20041;-82
2023/01/15 12:08:42;;;;;;;13.23;2.40;;;5.40;99.90;;;;;;4976364;28;20043;-82
2023/01/15 12:11:17;;;;;;;9.67;2.33;;;5.50;99.90;;;;;;4978528;28;20077;-83
2023/01/15 12:14:27;;;;;;;15.30;3.20;;;5.60;99.90;;;;;;4997438;28;20054;-82
2023/01/15 12:17:14;;;;;;;10.43;2.40;;;5.70;99.90;;;;;;4979553;28;20441;-83
2023/01/15 12:19:55;;;;;;;12.00;2.30;;;5.80;99.90;;;;;;4980093;28;20086;-82
2023/01/15 12:22:43;;;;;;;11.73;2.27;;;5.90;99.90;;;;;;4979590;28;20141;-83
2023/01/15 12:25:51;;;;;;;13.93;2.50;;;6.00;99.90;;;;;;4996223;28;20078;-83
2023/01/15 12:28:26;;;;;;;18.10;3.07;;;6.00;99.90;;;;;;4979510;28;20533;-83
2023/01/15 12:30:55;;;;;;;12.50;2.30;;;6.40;99.90;;;;;;5012334;28;20490;-84
2023/01/15 12:33:27;;;;;;;13.63;2.53;;;6.10;99.90;;;;;;4997733;28;20497;-82
2023/01/15 12:36:02;;;;;;;10.00;2.20;;;6.20;99.90;;;;;;4998433;28;20053;-82
2023/01/15 12:38:46;;;;;;;12.23;2.63;;;6.20;99.90;;;;;;4996596;28;20033;-83
2023/01/15 12:47:20;;;;;;;13.03;2.60;;;6.80;99.90;;;;;;4994562;28;20046;-82
2023/01/15 12:49:52;;;;;;;11.27;2.27;;;7.30;99.90;;;;;;5012517;28;20049;-83
2023/01/15 12:52:27;;;;;;;10.90;2.37;;;7.20;99.90;;;;;;4991700;28;20042;-83
2023/01/15 12:55:14;;;;;;;11.43;2.17;;;6.00;99.90;;;;;;5002252;28;20042;-83
2023/01/15 12:57:47;;;;;;;12.57;2.90;;;6.00;99.90;;;;;;4998565;28;20053;-83
2023/01/15 13:00:24;;;;;;;11.17;2.47;;;5.80;99.90;;;;;;5014916;28;20053;-82
2023/01/15 13:02:56;;;;;;;14.13;2.47;;;5.70;99.90;;;;;;4998068;28;20064;-83
2023/01/15 13:05:46;;;;;;;10.33;2.43;;;5.60;99.90;;;;;;4996588;28;20038;-82
2023/01/15 13:08:37;;;;;;;10.07;2.40;;;5.50;99.90;;;;;;5013313;28;20049;-82
2023/01/15 13:11:03;;;;;;;12.07;3.07;;;5.50;99.90;;;;;;5013692;28;20121;-82
2023/01/15 13:13:35;;;;;;;11.53;2.37;;;5.60;99.90;;;;;;4996938;28;20129;-82
2023/01/15 13:16:21;;;;;;;14.23;2.57;;;5.50;99.90;;;;;;4997044;28;20057;-82
2023/01/15 13:19:15;;;;;;;9.90;2.37;;;6.80;99.90;;;;;;5014834;28;20054;-82
2023/01/15 13:21:42;;;;;;;11.10;2.60;;;5.40;99.90;;;;;;4996944;28;20050;-82
2023/01/15 13:24:22;;;;;;;11.33;2.77;;;5.40;99.90;;;;;;5015573;28;20049;-82
2023/01/15 13:27:16;;;;;;;13.90;2.77;;;5.40;99.90;;;;;;4997508;28;20073;-82
2023/01/15 13:30:16;;;;;;;13.03;3.33;;;5.40;99.90;;;;;;4996840;28;20099;-82
2023/01/15 13:32:47;;;;;;;15.33;5.13;;;5.40;99.90;;;;;;4998782;28;20281;-82
2023/01/15 13:35:12;;;;;;;13.50;2.77;;;5.50;99.90;;;;;;5014180;28;20084;-82
2023/01/15 13:38:00;;;;;;;11.63;2.63;;;5.40;99.90;;;;;;5015184;28;20478;-82
2023/01/15 13:40:37;;;;;;;12.87;2.60;;;5.30;99.90;;;;;;4997366;28;20529;-82
2023/01/15 13:43:06;;;;;;;14.73;3.07;;;5.30;99.90;;;;;;4996258;28;20049;-82
2023/01/15 13:45:46;;;;;;;10.00;2.07;;;5.50;99.90;;;;;;4994354;28;20050;-82
2023/01/15 13:48:32;;;;;;;11.47;2.53;;;5.60;99.90;;;;;;4996603;28;20042;-83
2023/01/15 13:51:00;;;;;;;10.63;2.30;;;5.70;99.90;;;;;;4996279;28;20045;-83
2023/01/15 13:53:46;;;;;;;12.87;2.27;;;5.80;99.90;;;;;;5013862;28;20078;-82
2023/01/15 13:56:15;;;;;;;8.67;2.10;;;6.40;99.90;;;;;;4996019;28;20132;-82
2023/01/15 13:58:53;;;;;;;12.33;2.70;;;5.90;99.90;;;;;;4997039;28;20489;-83
2023/01/15 14:01:22;;;;;;;13.40;2.87;;;6.90;99.90;;;;;;5014115;28;20037;-83
2023/01/15 14:03:53;;;;;;;15.23;2.50;;;6.10;99.90;;;;;;5013983;28;20085;-82
2023/01/15 14:06:19;;;;;;;9.07;2.00;;;6.10;99.90;;;;;;4996736;28;20046;-83
2023/01/15 14:08:45;;;;;;;8.20;1.90;;;6.20;99.90;;;;;;5022568;28;20054;-82
2023/01/15 14:11:34;;;;;;;9.93;2.13;;;6.20;99.90;;;;;;5015409;28;20591;-83
2023/01/15 14:14:38;;;;;;;8.50;2.00;;;7.10;99.90;;;;;;4996497;28;20453;-82
2023/01/15 14:17:46;;;;;;;7.67;1.70;;;6.00;99.90;;;;;;5014729;28;20045;-83
2023/01/15 14:20:47;;;;;;;8.40;2.50;;;6.00;99.90;;;;;;5012839;28;20094;-83
2023/01/15 14:23:28;;;;;;;9.97;2.17;;;6.00;99.90;;;;;;4994568;28;20050;-83
2023/01/15 14:26:00;;;;;;;9.93;2.80;;;6.00;99.90;;;;;;5012176;28;20042;-83
2023/01/15 14:28:42;;;;;;;11.47;2.50;;;5.90;99.90;;;;;;4993583;28;20552;-83
2023/01/15 14:31:32;;;;;;;7.97;1.90;;;5.80;99.90;;;;;;4985991;28;20454;-83
2023/01/15 14:34:27;;;;;;;10.77;2.30;;;5.80;99.90;;;;;;4995221;28;20073;-83
2023/01/15 14:36:59;;;;;;;9.70;2.17;;;5.70;99.90;;;;;;5013515;28;20041;-83